createdAt,value
2018-01-18T00:00:38.328Z,1002.60
2018-01-18T00:02:05.388Z,1002.59
2018-01-18T00:03:32.658Z,1002.55
2018-01-18T00:04:59.786Z,1002.60
2018-01-18T00:06:26.813Z,1002.62
2018-01-18T00:07:54.009Z,1002.60
2018-01-18T00:09:21.307Z,1002.66
2018-01-18T00:10:48.479Z,1002.67
2018-01-18T00:12:15.785Z,1002.69
2018-01-18T00:13:43.203Z,1002.70
2018-01-18T00:15:10.208Z,1002.73
2018-01-18T00:16:37.283Z,1002.74
2018-01-18T00:18:04.345Z,1002.76
2018-01-18T00:19:31.537Z,1002.74
2018-01-18T00:20:58.661Z,1002.76
2018-01-18T00:22:25.584Z,1002.75
2018-01-18T00:23:52.795Z,1002.72
2018-01-18T00:25:20.076Z,1002.70
2018-01-18T00:26:47.354Z,1002.70
2018-01-18T00:28:14.412Z,1002.69
2018-01-18T00:29:41.730Z,1002.70
2018-01-18T00:31:08.535Z,1002.70
2018-01-18T00:32:35.657Z,1002.73
2018-01-18T00:34:02.659Z,1002.75
2018-01-18T00:35:29.748Z,1002.74
2018-01-18T00:36:56.890Z,1002.82
2018-01-18T00:38:24.176Z,1002.79
2018-01-18T00:39:51.543Z,1002.79
2018-01-18T00:41:18.708Z,1002.79
2018-01-18T00:42:45.856Z,1002.78
2018-01-18T00:44:12.969Z,1002.77
2018-01-18T00:45:40.225Z,1002.73
2018-01-18T00:47:07.432Z,1002.70
2018-01-18T00:48:34.571Z,1002.69
2018-01-18T00:50:01.704Z,1002.67
2018-01-18T00:51:28.590Z,1002.63
2018-01-18T00:52:55.774Z,1002.68
2018-01-18T00:54:22.963Z,1002.74
2018-01-18T00:55:50.171Z,1002.78
2018-01-18T00:57:17.240Z,1002.75
2018-01-18T00:58:44.258Z,1002.75
2018-01-18T01:00:11.194Z,1002.72
2018-01-18T01:01:38.396Z,1002.74
2018-01-18T01:03:05.493Z,1002.76
2018-01-18T01:04:32.675Z,1002.75
2018-01-18T01:05:59.985Z,1002.74
2018-01-18T01:07:27.096Z,1002.75
2018-01-18T01:08:54.279Z,1002.75
2018-01-18T01:10:21.426Z,1002.78
2018-01-18T01:11:48.591Z,1002.74
2018-01-18T01:13:15.711Z,1002.67
2018-01-18T01:14:42.754Z,1002.70
2018-01-18T01:16:09.746Z,1002.65
2018-01-18T01:17:36.947Z,1002.67
2018-01-18T01:19:03.936Z,1002.66
2018-01-18T01:20:31.011Z,1002.67
2018-01-18T01:21:58.254Z,1002.64
2018-01-18T01:23:25.218Z,1002.63
2018-01-18T01:24:52.526Z,1002.63
2018-01-18T01:26:19.599Z,1002.63
2018-01-18T01:27:46.845Z,1002.65
2018-01-18T01:29:14.216Z,1002.67
2018-01-18T01:30:41.594Z,1002.71
2018-01-18T01:32:08.777Z,1002.70
2018-01-18T01:33:35.983Z,1002.72
2018-01-18T01:35:03.179Z,1002.74
2018-01-18T01:36:30.306Z,1002.73
2018-01-18T01:37:57.605Z,1002.69
2018-01-18T01:39:24.861Z,1002.68
2018-01-18T01:40:52.132Z,1002.67
2018-01-18T01:42:19.306Z,1002.64
2018-01-18T01:43:46.536Z,1002.65
2018-01-18T01:45:13.854Z,1002.68
2018-01-18T01:46:41.022Z,1002.68
2018-01-18T01:48:08.341Z,1002.64
2018-01-18T01:49:35.441Z,1002.68
2018-01-18T01:51:02.695Z,1002.65
2018-01-18T01:52:29.820Z,1002.65
2018-01-18T01:53:56.847Z,1002.65
2018-01-18T01:55:23.917Z,1002.64
2018-01-18T01:56:51.282Z,1002.66
2018-01-18T01:58:18.398Z,1002.67
2018-01-18T01:59:45.635Z,1002.62
2018-01-18T02:01:12.734Z,1002.58
2018-01-18T02:02:39.912Z,1002.52
2018-01-18T02:04:07.144Z,1002.55
2018-01-18T02:05:34.311Z,1002.53
2018-01-18T02:07:01.277Z,1002.48
2018-01-18T02:08:28.612Z,1002.47
2018-01-18T02:09:55.595Z,1002.44
2018-01-18T02:11:22.827Z,1002.40
2018-01-18T02:12:49.985Z,1002.39
2018-01-18T02:14:17.275Z,1002.39
2018-01-18T02:15:44.312Z,1002.40
2018-01-18T02:17:11.168Z,1002.43
2018-01-18T02:18:38.361Z,1002.43
2018-01-18T02:20:05.650Z,1002.42
2018-01-18T02:21:32.562Z,1002.43
2018-01-18T02:22:59.661Z,1002.42
2018-01-18T02:24:26.681Z,1002.40
2018-01-18T02:25:53.686Z,1002.50
2018-01-18T02:27:20.706Z,1002.48
2018-01-18T02:28:47.563Z,1002.49
2018-01-18T02:30:14.848Z,1002.47
2018-01-18T02:31:42.155Z,1002.48
2018-01-18T02:33:09.336Z,1002.47
2018-01-18T02:34:36.492Z,1002.47
2018-01-18T02:36:03.670Z,1002.47
2018-01-18T02:37:30.899Z,1002.48
2018-01-18T02:38:58.072Z,1002.49
2018-01-18T02:40:25.089Z,1002.48
2018-01-18T02:41:52.247Z,1002.44
2018-01-18T02:43:19.296Z,1002.41
2018-01-18T02:44:46.499Z,1002.40
2018-01-18T02:46:13.578Z,1002.42
2018-01-18T02:47:40.864Z,1002.40
2018-01-18T02:49:07.704Z,1002.36
2018-01-18T02:50:35.004Z,1002.36
2018-01-18T02:52:02.332Z,1002.34
2018-01-18T02:53:29.389Z,1002.30
2018-01-18T02:54:56.578Z,1002.29
2018-01-18T02:56:23.940Z,1002.23
2018-01-18T02:57:50.935Z,1002.22
2018-01-18T02:59:18.358Z,1002.30
2018-01-18T03:00:45.666Z,1002.31
2018-01-18T03:02:12.549Z,1002.33
2018-01-18T03:03:39.735Z,1002.32
2018-01-18T03:05:06.715Z,1002.30
2018-01-18T03:06:33.809Z,1002.27
2018-01-18T03:08:00.860Z,1002.26
2018-01-18T03:09:27.784Z,1002.24
2018-01-18T03:10:55.031Z,1002.18
2018-01-18T03:12:22.023Z,1002.17
2018-01-18T03:13:49.368Z,1002.18
2018-01-18T03:15:16.341Z,1002.13
2018-01-18T03:16:43.445Z,1002.07
2018-01-18T03:18:10.741Z,1002.06
2018-01-18T03:19:38.041Z,1002.04
2018-01-18T03:21:05.151Z,1002.02
2018-01-18T03:22:32.439Z,1001.96
2018-01-18T03:23:59.531Z,1001.95
2018-01-18T03:25:26.526Z,1001.91
2018-01-18T03:26:53.796Z,1001.92
2018-01-18T03:28:20.951Z,1001.89
2018-01-18T03:29:48.258Z,1001.92
2018-01-18T03:31:15.442Z,1001.92
2018-01-18T03:32:42.546Z,1001.85
2018-01-18T03:34:09.822Z,1001.84
2018-01-18T03:35:37.165Z,1001.82
2018-01-18T03:37:04.346Z,1001.83
2018-01-18T03:38:31.534Z,1001.85
2018-01-18T03:39:58.690Z,1001.82
2018-01-18T03:41:25.776Z,1001.80
2018-01-18T03:42:52.842Z,1001.73
2018-01-18T03:44:20.057Z,1001.70
2018-01-18T03:45:47.343Z,1001.71
2018-01-18T03:47:14.646Z,1001.67
2018-01-18T03:48:41.563Z,1001.58
2018-01-18T03:50:08.634Z,1001.58
2018-01-18T03:51:35.887Z,1001.55
2018-01-18T03:53:03.087Z,1001.55
2018-01-18T03:54:30.106Z,1001.53
2018-01-18T03:55:57.302Z,1001.51
2018-01-18T03:57:24.482Z,1001.46
2018-01-18T03:58:51.741Z,1001.41
2018-01-18T04:00:18.944Z,1001.42
2018-01-18T04:01:46.196Z,1001.39
2018-01-18T04:03:13.444Z,1001.35
2018-01-18T04:04:40.759Z,1001.34
2018-01-18T04:06:07.749Z,1001.32
2018-01-18T04:07:35.033Z,1001.29
2018-01-18T04:09:02.222Z,1001.28
2018-01-18T04:10:29.261Z,1001.28
2018-01-18T04:11:56.389Z,1001.25
2018-01-18T04:13:23.450Z,1001.23
2018-01-18T04:14:50.335Z,1001.18
2018-01-18T04:16:17.711Z,1001.16
2018-01-18T04:17:44.667Z,1001.15
2018-01-18T04:19:11.880Z,1001.16
2018-01-18T04:20:39.098Z,1001.12
2018-01-18T04:22:06.353Z,1001.10
2018-01-18T04:23:33.615Z,1001.07
2018-01-18T04:25:00.794Z,1001.04
2018-01-18T04:26:27.850Z,1001.03
2018-01-18T04:27:55.006Z,1001.00
2018-01-18T04:29:22.216Z,1000.97
2018-01-18T04:30:49.451Z,1000.94
2018-01-18T04:32:16.642Z,1000.94
2018-01-18T04:33:43.955Z,1000.91
2018-01-18T04:35:10.848Z,1000.91
2018-01-18T04:36:37.934Z,1000.90
2018-01-18T04:38:05.098Z,1000.90
2018-01-18T04:39:32.231Z,1000.89
2018-01-18T04:40:59.399Z,1000.91
2018-01-18T04:42:26.587Z,1000.91
2018-01-18T04:43:53.803Z,1000.93
2018-01-18T04:45:21.053Z,1000.91
2018-01-18T04:46:48.148Z,1000.86
2018-01-18T04:48:15.211Z,1000.80
2018-01-18T04:49:41.980Z,1000.80
2018-01-18T04:51:09.274Z,1000.81
2018-01-18T04:52:36.393Z,1000.79
2018-01-18T04:54:03.663Z,1000.77
2018-01-18T04:55:30.682Z,1000.71
2018-01-18T04:56:57.861Z,1000.70
2018-01-18T04:58:25.197Z,1000.68
2018-01-18T04:59:52.353Z,1000.68
2018-01-18T05:01:19.612Z,1000.67
2018-01-18T05:02:46.687Z,1000.70
2018-01-18T05:04:13.529Z,1000.74
2018-01-18T05:05:40.925Z,1000.72
2018-01-18T05:07:08.170Z,1000.69
2018-01-18T05:08:35.397Z,1000.71
2018-01-18T05:10:02.476Z,1000.69
2018-01-18T05:11:29.756Z,1000.63
2018-01-18T05:12:56.976Z,1000.60
2018-01-18T05:14:24.288Z,1000.53
2018-01-18T05:15:51.530Z,1000.50
2018-01-18T05:17:18.216Z,1000.50
2018-01-18T05:18:45.305Z,1000.45
2018-01-18T05:20:12.576Z,1000.44
2018-01-18T05:21:39.879Z,1000.42
2018-01-18T05:23:06.632Z,1000.39
2018-01-18T05:24:33.818Z,1000.32
2018-01-18T05:26:00.833Z,1000.30
2018-01-18T05:27:27.984Z,1000.27
2018-01-18T05:28:55.056Z,1000.27
2018-01-18T05:30:22.290Z,1000.24
2018-01-18T05:31:48.996Z,1000.20
2018-01-18T05:33:16.362Z,1000.15
2018-01-18T05:34:43.118Z,1000.09
2018-01-18T05:36:10.184Z,1000.02
2018-01-18T05:37:36.864Z,999.98
2018-01-18T05:39:04.119Z,999.92
2018-01-18T05:40:31.286Z,999.91
2018-01-18T05:41:58.247Z,999.89
2018-01-18T05:43:25.538Z,999.82
2018-01-18T05:44:52.650Z,999.75
2018-01-18T05:46:19.776Z,999.73
2018-01-18T05:47:46.911Z,999.65
2018-01-18T05:49:14.142Z,999.61
2018-01-18T05:50:41.287Z,999.58
2018-01-18T05:52:08.697Z,999.56
2018-01-18T05:53:35.710Z,999.53
2018-01-18T05:55:02.878Z,999.49
2018-01-18T05:56:29.503Z,999.46
2018-01-18T05:57:56.623Z,999.41
2018-01-18T05:59:23.896Z,999.43
2018-01-18T06:00:50.644Z,999.43
2018-01-18T06:02:18.878Z,999.41
2018-01-18T06:03:44.725Z,999.32
2018-01-18T06:05:11.999Z,999.23
2018-01-18T06:06:39.133Z,999.23
2018-01-18T06:08:06.457Z,999.28
2018-01-18T06:09:33.645Z,999.32
2018-01-18T06:11:00.015Z,999.30
2018-01-18T06:12:27.104Z,999.26
2018-01-18T06:13:54.320Z,999.21
2018-01-18T06:15:21.592Z,999.20
2018-01-18T06:16:48.951Z,999.22
2018-01-18T06:18:15.225Z,999.20
2018-01-18T06:19:42.546Z,999.17
2018-01-18T06:21:09.711Z,999.12
2018-01-18T06:22:37.026Z,999.12
2018-01-18T06:24:04.314Z,999.10
2018-01-18T06:25:31.526Z,999.05
2018-01-18T06:26:58.719Z,998.98
2018-01-18T06:28:25.851Z,998.89
2018-01-18T06:29:53.148Z,998.89
2018-01-18T06:31:20.415Z,998.83
2018-01-18T06:32:47.567Z,998.77
2018-01-18T06:34:14.852Z,998.71
2018-01-18T06:35:41.506Z,998.66
2018-01-18T06:37:08.951Z,998.61
2018-01-18T06:38:35.951Z,998.58
2018-01-18T06:40:03.132Z,998.55
2018-01-18T06:41:30.173Z,998.50
2018-01-18T06:42:57.040Z,998.47
2018-01-18T06:44:23.853Z,998.44
2018-01-18T06:45:51.093Z,998.39
2018-01-18T06:47:18.354Z,998.39
2018-01-18T06:48:45.635Z,998.37
2018-01-18T06:50:12.855Z,998.34
2018-01-18T06:51:40.041Z,998.30
2018-01-18T06:53:07.344Z,998.33
2018-01-18T06:54:34.567Z,998.33
2018-01-18T06:56:01.613Z,998.32
2018-01-18T06:57:28.593Z,998.34
2018-01-18T06:58:55.539Z,998.33
2018-01-18T07:00:22.686Z,998.32
2018-01-18T07:01:49.976Z,998.33
2018-01-18T07:03:17.149Z,998.34
2018-01-18T07:04:44.329Z,998.32
2018-01-18T07:06:10.992Z,998.29
2018-01-18T07:07:38.215Z,998.24
2018-01-18T07:09:05.420Z,998.18
2018-01-18T07:10:32.688Z,998.10
2018-01-18T07:11:59.904Z,998.04
2018-01-18T07:13:27.104Z,997.96
2018-01-18T07:14:54.268Z,997.90
2018-01-18T07:16:21.582Z,997.85
2018-01-18T07:17:48.896Z,997.84
2018-01-18T07:19:16.173Z,997.81
2018-01-18T07:20:43.229Z,997.82
2018-01-18T07:22:10.516Z,997.77
2018-01-18T07:23:37.825Z,997.71
2018-01-18T07:25:04.970Z,997.64
2018-01-18T07:26:32.013Z,997.66
2018-01-18T07:27:59.080Z,997.65
2018-01-18T07:29:26.147Z,997.61
2018-01-18T07:30:53.330Z,997.60
2018-01-18T07:32:20.413Z,997.59
2018-01-18T07:33:47.718Z,997.50
2018-01-18T07:35:14.870Z,997.45
2018-01-18T07:36:41.768Z,997.35
2018-01-18T07:38:09.113Z,997.25
2018-01-18T07:39:36.152Z,997.18
2018-01-18T07:41:02.881Z,997.17
2018-01-18T07:42:30.129Z,997.10
2018-01-18T07:43:57.137Z,997.08
2018-01-18T07:45:24.466Z,997.03
2018-01-18T07:46:51.665Z,997.04
2018-01-18T07:48:18.887Z,996.97
2018-01-18T07:49:46.075Z,996.92
2018-01-18T07:51:13.405Z,996.90
2018-01-18T07:52:40.453Z,996.87
2018-01-18T07:54:07.560Z,996.86
2018-01-18T07:55:34.447Z,996.87
2018-01-18T07:57:01.660Z,996.86
2018-01-18T07:58:28.575Z,996.77
2018-01-18T07:59:55.615Z,996.72
2018-01-18T08:01:22.768Z,996.69
2018-01-18T08:02:49.845Z,996.68
2018-01-18T08:04:16.679Z,996.63
2018-01-18T08:05:43.815Z,996.59
2018-01-18T08:07:11.043Z,996.53
2018-01-18T08:08:38.292Z,996.43
2018-01-18T08:10:05.566Z,996.37
2018-01-18T08:11:32.877Z,996.31
2018-01-18T08:13:00.012Z,996.25
2018-01-18T08:14:26.891Z,996.18
2018-01-18T08:15:54.038Z,996.11
2018-01-18T08:17:21.272Z,996.05
2018-01-18T08:18:48.372Z,995.95
2018-01-18T08:20:15.679Z,995.88
2018-01-18T08:21:42.762Z,995.82
2018-01-18T08:23:10.079Z,995.75
2018-01-18T08:24:37.315Z,995.66
2018-01-18T08:26:04.603Z,995.61
2018-01-18T08:27:31.671Z,995.56
2018-01-18T08:28:58.704Z,995.52
2018-01-18T08:30:25.516Z,995.47
2018-01-18T08:31:52.457Z,995.41
2018-01-18T08:33:19.258Z,995.35
2018-01-18T08:34:46.395Z,995.34
2018-01-18T08:36:13.780Z,995.27
2018-01-18T08:37:41.013Z,995.21
2018-01-18T08:39:08.146Z,995.16
2018-01-18T08:40:35.241Z,995.08
2018-01-18T08:42:02.417Z,995.03
2018-01-18T08:43:29.581Z,994.98
2018-01-18T08:44:56.830Z,994.92
2018-01-18T08:46:23.890Z,994.90
2018-01-18T08:47:51.029Z,994.88
2018-01-18T08:49:18.246Z,994.89
2018-01-18T08:50:45.339Z,994.88
2018-01-18T08:52:12.517Z,994.86
2018-01-18T08:53:39.747Z,994.75
2018-01-18T08:55:06.961Z,994.72
2018-01-18T08:56:34.217Z,994.66
2018-01-18T08:58:01.141Z,994.58
2018-01-18T08:59:28.274Z,994.55
2018-01-18T09:00:55.416Z,994.49
2018-01-18T09:02:22.622Z,994.43
2018-01-18T09:03:49.980Z,994.36
2018-01-18T09:05:17.017Z,994.30
2018-01-18T09:06:43.739Z,994.24
2018-01-18T09:08:10.848Z,994.18
2018-01-18T09:09:38.040Z,994.14
2018-01-18T09:11:05.111Z,994.06
2018-01-18T09:12:32.076Z,994.00
2018-01-18T09:13:59.149Z,993.92
2018-01-18T09:15:26.306Z,993.78
2018-01-18T09:16:56.342Z,993.77
2018-01-18T09:18:20.420Z,993.66
2018-01-18T09:19:47.706Z,993.59
2018-01-18T09:21:14.955Z,993.53
2018-01-18T09:22:42.218Z,993.42
2018-01-18T09:24:09.402Z,993.39
2018-01-18T09:25:36.719Z,993.33
2018-01-18T09:27:03.802Z,993.22
2018-01-18T09:28:31.037Z,993.16
2018-01-18T09:29:58.107Z,993.09
2018-01-18T09:31:25.500Z,993.06
2018-01-18T09:32:52.444Z,993.00
2018-01-18T09:34:19.609Z,992.97
2018-01-18T09:35:46.553Z,992.92
2018-01-18T09:37:13.743Z,992.85
2018-01-18T09:38:40.853Z,992.78
2018-01-18T09:40:07.931Z,992.69
2018-01-18T09:41:35.138Z,992.62
2018-01-18T09:43:02.395Z,992.57
2018-01-18T09:44:29.650Z,992.47
2018-01-18T09:45:56.508Z,992.40
2018-01-18T09:47:23.647Z,992.30
2018-01-18T09:48:50.838Z,992.26
2018-01-18T09:50:18.098Z,992.19
2018-01-18T09:51:45.334Z,992.13
2018-01-18T09:53:12.671Z,992.16
2018-01-18T09:54:39.912Z,992.12
2018-01-18T09:56:06.993Z,992.06
2018-01-18T09:57:34.194Z,991.99
2018-01-18T09:59:01.184Z,991.92
2018-01-18T10:00:28.184Z,991.88
2018-01-18T10:01:55.157Z,991.80
2018-01-18T10:03:22.381Z,991.71
2018-01-18T10:04:49.620Z,991.63
2018-01-18T10:06:16.864Z,991.63
2018-01-18T10:07:43.966Z,991.54
2018-01-18T10:09:11.090Z,991.51
2018-01-18T10:10:38.199Z,991.42
2018-01-18T10:12:05.247Z,991.40
2018-01-18T10:13:32.370Z,991.32
2018-01-18T10:14:59.416Z,991.27
2018-01-18T10:16:26.456Z,991.25
2018-01-18T10:17:53.536Z,991.13
2018-01-18T10:19:20.542Z,991.08
2018-01-18T10:20:48.034Z,991.02
2018-01-18T10:22:15.018Z,990.93
2018-01-18T10:23:42.155Z,990.88
2018-01-18T10:25:09.154Z,990.81
2018-01-18T10:26:36.323Z,990.78
2018-01-18T10:28:03.275Z,990.74
2018-01-18T10:29:30.395Z,990.70
2018-01-18T10:30:57.510Z,990.62
2018-01-18T10:32:24.736Z,990.55
2018-01-18T10:33:51.561Z,990.47
2018-01-18T10:35:18.782Z,990.38
2018-01-18T10:36:45.991Z,990.23
2018-01-18T10:38:13.068Z,990.18
2018-01-18T10:39:40.299Z,990.08
2018-01-18T10:41:07.360Z,989.97
2018-01-18T10:42:34.428Z,989.91
2018-01-18T10:44:01.582Z,989.85
2018-01-18T10:45:28.720Z,989.81
2018-01-18T10:46:55.575Z,989.80
2018-01-18T10:48:22.587Z,989.79
2018-01-18T10:49:49.783Z,989.70
2018-01-18T10:51:17.064Z,989.58
2018-01-18T10:52:44.175Z,989.49
2018-01-18T10:54:11.340Z,989.43
2018-01-18T10:55:38.458Z,989.35
2018-01-18T10:57:05.586Z,989.33
2018-01-18T10:58:32.684Z,989.24
2018-01-18T10:59:59.877Z,989.12
2018-01-18T11:01:26.866Z,989.00
2018-01-18T11:02:54.030Z,988.93
2018-01-18T11:04:21.184Z,988.81
2018-01-18T11:05:48.279Z,988.75
2018-01-18T11:07:15.305Z,988.63
2018-01-18T11:08:42.213Z,988.54
2018-01-18T11:10:09.291Z,988.42
2018-01-18T11:11:36.342Z,988.32
2018-01-18T11:13:03.397Z,988.22
2018-01-18T11:14:30.129Z,988.08
2018-01-18T11:15:57.077Z,988.00
2018-01-18T11:17:24.256Z,987.87
2018-01-18T11:18:50.972Z,987.81
2018-01-18T11:20:18.235Z,987.67
2018-01-18T11:21:45.366Z,987.64
2018-01-18T11:23:12.412Z,987.54
2018-01-18T11:24:39.532Z,987.41
2018-01-18T11:26:06.774Z,987.32
2018-01-18T11:27:33.994Z,987.30
2018-01-18T11:29:00.899Z,987.25
2018-01-18T11:30:28.039Z,987.15
2018-01-18T11:31:55.167Z,987.07
2018-01-18T11:33:22.238Z,987.07
2018-01-18T11:34:49.406Z,986.90
2018-01-18T11:36:16.591Z,986.75
2018-01-18T11:37:43.736Z,986.76
2018-01-18T11:39:10.959Z,986.76
2018-01-18T11:40:38.126Z,986.72
2018-01-18T11:42:05.201Z,986.62
2018-01-18T11:43:32.315Z,986.48
2018-01-18T11:44:59.479Z,986.42
2018-01-18T11:46:26.561Z,986.45
2018-01-18T11:47:53.657Z,986.38
2018-01-18T11:49:20.668Z,986.34
2018-01-18T11:50:47.781Z,986.36
2018-01-18T11:52:14.895Z,986.27
2018-01-18T11:53:42.038Z,986.29
2018-01-18T11:55:09.167Z,986.17
2018-01-18T11:56:36.160Z,986.13
2018-01-18T11:58:03.122Z,986.08
2018-01-18T11:59:30.166Z,986.04
2018-01-18T12:00:57.042Z,985.97
2018-01-18T12:02:24.174Z,985.93
2018-01-18T12:03:51.257Z,985.93
2018-01-18T12:05:18.595Z,985.91
2018-01-18T12:06:45.320Z,985.83
2018-01-18T12:08:12.586Z,985.75
2018-01-18T12:09:39.794Z,985.74
2018-01-18T12:11:06.908Z,985.69
2018-01-18T12:12:34.165Z,985.73
2018-01-18T12:14:01.361Z,985.62
2018-01-18T12:15:28.337Z,985.57
2018-01-18T12:16:55.394Z,985.49
2018-01-18T12:18:22.576Z,985.50
2018-01-18T12:19:49.832Z,985.43
2018-01-18T12:21:16.994Z,985.34
2018-01-18T12:22:43.991Z,985.35
2018-01-18T12:24:11.145Z,985.28
2018-01-18T12:25:38.394Z,985.28
2018-01-18T12:27:05.541Z,985.29
2018-01-18T12:28:32.636Z,985.16
2018-01-18T12:29:59.923Z,985.12
2018-01-18T12:31:26.939Z,985.06
2018-01-18T12:32:54.023Z,985.05
2018-01-18T12:34:21.257Z,985.02
2018-01-18T12:35:48.319Z,984.90
2018-01-18T12:37:15.337Z,984.88
2018-01-18T12:38:42.500Z,984.86
2018-01-18T12:40:09.504Z,984.80
2018-01-18T12:41:36.628Z,984.82
2018-01-18T12:43:03.746Z,984.75
2018-01-18T12:44:30.707Z,984.73
2018-01-18T12:45:57.709Z,984.63
2018-01-18T12:47:24.875Z,984.64
2018-01-18T12:48:52.042Z,984.60
2018-01-18T12:50:19.007Z,984.50
2018-01-18T12:51:46.209Z,984.40
2018-01-18T12:53:13.361Z,984.39
2018-01-18T12:54:40.373Z,984.33
2018-01-18T12:56:07.568Z,984.32
2018-01-18T12:57:34.734Z,984.28
2018-01-18T12:59:02.059Z,984.20
2018-01-18T13:00:29.090Z,984.20
2018-01-18T13:01:56.125Z,984.15
2018-01-18T13:03:23.141Z,984.14
2018-01-18T13:04:50.427Z,984.14
2018-01-18T13:06:17.267Z,984.16
2018-01-18T13:07:44.398Z,984.13
2018-01-18T13:09:11.550Z,984.12
2018-01-18T13:10:38.729Z,984.14
2018-01-18T13:12:05.809Z,984.13
2018-01-18T13:13:32.792Z,984.14
2018-01-18T13:14:59.809Z,984.12
2018-01-18T13:16:26.946Z,984.13
2018-01-18T13:17:54.029Z,984.10
2018-01-18T13:19:21.178Z,984.13
2018-01-18T13:20:48.231Z,984.08
2018-01-18T13:22:15.304Z,984.09
2018-01-18T13:23:42.625Z,984.07
2018-01-18T13:25:09.730Z,984.06
2018-01-18T13:26:37.018Z,984.01
2018-01-18T13:28:04.238Z,984.02
2018-01-18T13:29:31.402Z,984.01
2018-01-18T13:30:58.420Z,984.01
2018-01-18T13:32:25.665Z,984.05
2018-01-18T13:33:52.826Z,984.06
2018-01-18T13:35:20.001Z,984.07
2018-01-18T13:36:47.222Z,984.05
2018-01-18T13:38:14.106Z,984.08
2018-01-18T13:39:41.242Z,984.08
2018-01-18T13:41:08.461Z,984.07
2018-01-18T13:42:35.649Z,984.06
2018-01-18T13:44:02.495Z,984.06
2018-01-18T13:45:29.543Z,984.06
2018-01-18T13:46:56.662Z,984.03
2018-01-18T13:48:23.462Z,983.99
2018-01-18T13:49:50.653Z,984.03
2018-01-18T13:51:17.766Z,984.01
2018-01-18T13:52:44.867Z,984.02
2018-01-18T13:54:12.110Z,984.00
2018-01-18T13:55:39.316Z,983.96
2018-01-18T13:57:06.057Z,983.97
2018-01-18T13:58:33.110Z,983.96
2018-01-18T14:00:00.222Z,983.99
2018-01-18T14:01:27.336Z,984.00
2018-01-18T14:02:54.565Z,984.00
2018-01-18T14:04:21.631Z,984.05
2018-01-18T14:05:48.839Z,984.04
2018-01-18T14:07:15.976Z,984.10
2018-01-18T14:08:43.263Z,984.14
2018-01-18T14:10:10.116Z,984.13
2018-01-18T14:11:37.188Z,984.13
2018-01-18T14:13:04.268Z,984.14
2018-01-18T14:14:31.302Z,984.16
2018-01-18T14:15:58.242Z,984.17
2018-01-18T14:17:25.520Z,984.18
2018-01-18T14:18:52.636Z,984.18
2018-01-18T14:20:19.713Z,984.19
2018-01-18T14:21:46.820Z,984.18
2018-01-18T14:23:13.688Z,984.15
2018-01-18T14:24:40.857Z,984.15
2018-01-18T14:26:07.883Z,984.14
2018-01-18T14:27:35.070Z,984.18
2018-01-18T14:29:02.169Z,984.23
2018-01-18T14:30:29.299Z,984.27
2018-01-18T14:31:56.309Z,984.30
2018-01-18T14:33:23.510Z,984.34
2018-01-18T14:34:50.487Z,984.35
2018-01-18T14:36:17.724Z,984.41
2018-01-18T14:37:44.757Z,984.41
2018-01-18T14:39:11.904Z,984.43
2018-01-18T14:40:38.990Z,984.45
2018-01-18T14:42:06.089Z,984.48
2018-01-18T14:43:33.275Z,984.52
2018-01-18T14:45:00.292Z,984.55
2018-01-18T14:46:27.489Z,984.56
2018-01-18T14:47:54.786Z,984.59
2018-01-18T14:49:21.895Z,984.61
2018-01-18T14:50:48.854Z,984.65
2018-01-18T14:52:16.031Z,984.68
2018-01-18T14:53:43.296Z,984.74
2018-01-18T14:55:10.427Z,984.78
2018-01-18T14:56:37.606Z,984.80
2018-01-18T14:58:05.612Z,984.86
2018-01-18T14:59:31.827Z,984.92
2018-01-18T15:00:58.828Z,984.96
2018-01-18T15:02:26.021Z,985.00
2018-01-18T15:03:53.233Z,985.10
2018-01-18T15:05:20.392Z,985.17
2018-01-18T15:06:47.446Z,985.25
2018-01-18T15:08:14.518Z,985.32
2018-01-18T15:09:41.693Z,985.40
2018-01-18T15:11:08.649Z,985.48
2018-01-18T15:12:35.748Z,985.56
2018-01-18T15:14:02.784Z,985.66
2018-01-18T15:15:30.183Z,985.71
2018-01-18T15:16:56.996Z,985.80
2018-01-18T15:18:23.965Z,985.83
2018-01-18T15:19:51.094Z,985.92
2018-01-18T15:21:18.149Z,985.98
2018-01-18T15:22:45.331Z,986.06
2018-01-18T15:24:12.513Z,986.13
2018-01-18T15:25:39.676Z,986.20
2018-01-18T15:28:33.797Z,986.37
2018-01-18T15:30:00.886Z,986.41
2018-01-18T15:31:27.856Z,986.51
2018-01-18T15:32:55.117Z,986.56
2018-01-18T15:34:22.233Z,986.63
2018-01-18T15:35:49.452Z,986.65
2018-01-18T15:37:16.528Z,986.72
2018-01-18T15:38:43.644Z,986.81
2018-01-18T15:40:10.894Z,986.87
2018-01-18T15:41:37.968Z,986.96
2018-01-18T15:43:05.200Z,987.05
2018-01-18T15:44:32.263Z,987.14
2018-01-18T15:45:59.348Z,987.22
2018-01-18T15:47:26.594Z,987.37
2018-01-18T15:48:53.705Z,987.42
2018-01-18T15:50:20.657Z,987.53
2018-01-18T15:51:47.719Z,987.63
2018-01-18T15:53:14.844Z,987.66
2018-01-18T15:54:41.979Z,987.78
2018-01-18T15:56:09.272Z,987.86
2018-01-18T15:57:36.574Z,987.93
2018-01-18T15:59:03.901Z,987.99
2018-01-18T16:00:30.942Z,988.04
2018-01-18T16:01:58.023Z,988.08
2018-01-18T16:03:25.258Z,988.15
2018-01-18T16:04:52.380Z,988.21
2018-01-18T16:06:19.550Z,988.31
2018-01-18T16:07:46.696Z,988.37
2018-01-18T16:09:13.718Z,988.47
2018-01-18T16:10:40.858Z,988.51
2018-01-18T16:12:07.974Z,988.58
2018-01-18T16:13:34.683Z,988.67
2018-01-18T16:15:01.879Z,988.74
2018-01-18T16:16:28.770Z,988.78
2018-01-18T16:17:55.637Z,988.91
2018-01-18T16:19:22.712Z,988.97
2018-01-18T16:20:50.037Z,989.05
2018-01-18T16:22:17.135Z,989.17
2018-01-18T16:23:44.101Z,989.24
2018-01-18T16:25:11.121Z,989.30
2018-01-18T16:26:38.163Z,989.38
2018-01-18T16:28:05.406Z,989.42
2018-01-18T16:29:32.411Z,989.46
2018-01-18T16:30:59.720Z,989.59
2018-01-18T16:32:26.811Z,989.66
2018-01-18T16:33:53.879Z,989.78
2018-01-18T16:35:20.821Z,989.85
2018-01-18T16:36:48.065Z,989.93
2018-01-18T16:38:15.212Z,990.00
2018-01-18T16:39:42.511Z,990.16
2018-01-18T16:41:09.721Z,990.28
2018-01-18T16:42:36.953Z,990.36
2018-01-18T16:44:04.064Z,990.47
2018-01-18T16:45:31.089Z,990.56
2018-01-18T16:46:58.257Z,990.59
2018-01-18T16:48:25.577Z,990.66
2018-01-18T16:49:52.656Z,990.73
2018-01-18T16:51:19.760Z,990.81
2018-01-18T16:52:46.975Z,990.91
2018-01-18T16:54:14.145Z,991.04
2018-01-18T16:55:41.482Z,991.08
2018-01-18T16:57:08.719Z,991.13
2018-01-18T16:58:35.884Z,991.20
2018-01-18T17:00:02.920Z,991.24
2018-01-18T17:01:30.167Z,991.35
2018-01-18T17:02:57.174Z,991.46
2018-01-18T17:04:24.358Z,991.53
2018-01-18T17:05:51.513Z,991.59
2018-01-18T17:07:18.762Z,991.66
2018-01-18T17:08:45.786Z,991.76
2018-01-18T17:10:12.948Z,991.85
2018-01-18T17:11:40.088Z,991.95
2018-01-18T17:13:07.253Z,992.02
2018-01-18T17:14:34.414Z,992.08
2018-01-18T17:16:01.692Z,992.16
2018-01-18T17:17:28.638Z,992.23
2018-01-18T17:18:55.807Z,992.33
2018-01-18T17:20:22.952Z,992.40
2018-01-18T17:21:50.146Z,992.43
2018-01-18T17:23:17.170Z,992.51
2018-01-18T17:24:44.390Z,992.53
2018-01-18T17:26:11.419Z,992.63
2018-01-18T17:27:38.557Z,992.69
2018-01-18T17:29:05.786Z,992.74
2018-01-18T17:30:33.037Z,992.86
2018-01-18T17:32:00.133Z,992.94
2018-01-18T17:33:27.058Z,993.02
2018-01-18T17:34:54.296Z,993.07
2018-01-18T17:36:21.291Z,993.15
2018-01-18T17:37:48.276Z,993.23
2018-01-18T17:39:15.468Z,993.32
2018-01-18T17:40:41.940Z,993.39
2018-01-18T17:42:09.238Z,993.47
2018-01-18T17:43:36.350Z,993.56
2018-01-18T17:45:02.678Z,993.62
2018-01-18T17:46:29.847Z,993.70
2018-01-18T17:47:56.365Z,993.73
2018-01-18T17:49:23.512Z,993.77
2018-01-18T17:50:50.781Z,993.81
2018-01-18T17:52:20.985Z,993.87
2018-01-18T17:53:44.859Z,993.91
2018-01-18T17:55:11.820Z,993.96
2018-01-18T17:56:38.881Z,994.07
2018-01-18T17:58:05.460Z,994.13